WZZ4566 UDYZ-LCLK
Flight info
| Callsign | WZZ4566 |
|---|---|
| Flight time | 1h 58m |
| Altitude | 36000 |
| Route | INDUR UN161 YAVUZ UB374 ERZ UA4 SIV UT284 EVKIT UB545 VESAR DCT KRASI DCT RUDER |
| Aircraft | A21N/M-SDE2E3FGHIRWXY/LB1 |
Departure
| Time | 2026-04-28 16:59 |
|---|---|
| Airport | Zvartnots International Airport (UDYZ) |
Arrival
| Time | 2026-04-28 18:58 |
|---|---|
| Airport | Larnaca International Airport (LCLK) |
| Time | Latitude | Longitude | Altitude | Speed | Heading |
|---|---|---|---|---|---|
| 2026-04-28 16:27 | 40.15202 | 44.39624 | 2851 ft | 0 kts | 131° |
| 2026-04-28 16:44 | 40.15204 | 44.39621 | 2851 ft | 2 kts | 131° |
| 2026-04-28 16:45 | 40.15214 | 44.39607 | 2851 ft | 2 kts | 131° |
| 2026-04-28 16:45 | 40.15224 | 44.39592 | 2851 ft | 2 kts | 131° |
| 2026-04-28 16:45 | 40.15234 | 44.39577 | 2851 ft | 2 kts | 131° |
| 2026-04-28 16:45 | 40.15244 | 44.39563 | 2851 ft | 2 kts | 131° |
| 2026-04-28 16:46 | 40.15256 | 44.39552 | 2851 ft | 1 kts | 174° |
| 2026-04-28 16:46 | 40.15262 | 44.39552 | 2851 ft | 0 kts | 188° |
| 2026-04-28 16:46 | 40.15269 | 44.39554 | 2851 ft | 1 kts | 192° |
| 2026-04-28 16:46 | 40.15270 | 44.39554 | 2851 ft | 0 kts | 192° |
| 2026-04-28 16:48 | 40.15268 | 44.39554 | 2851 ft | 1 kts | 192° |
| 2026-04-28 16:49 | 40.15229 | 44.39548 | 2851 ft | 9 kts | 179° |
| 2026-04-28 16:49 | 40.15152 | 44.39565 | 2851 ft | 11 kts | 153° |
| 2026-04-28 16:49 | 40.15085 | 44.39632 | 2850 ft | 12 kts | 128° |
| 2026-04-28 16:49 | 40.15051 | 44.39720 | 2851 ft | 7 kts | 119° |
| 2026-04-28 16:50 | 40.15011 | 44.39772 | 2851 ft | 8 kts | 143° |
| 2026-04-28 16:50 | 40.14978 | 44.39840 | 2850 ft | 9 kts | 96° |
| 2026-04-28 16:50 | 40.14980 | 44.39932 | 2851 ft | 10 kts | 88° |
| 2026-04-28 16:50 | 40.14967 | 44.40011 | 2851 ft | 8 kts | 134° |
| 2026-04-28 16:51 | 40.14916 | 44.40028 | 2851 ft | 8 kts | 176° |
| 2026-04-28 16:51 | 40.14885 | 44.40029 | 2850 ft | 0 kts | 180° |
| 2026-04-28 16:54 | 40.14883 | 44.40029 | 2850 ft | 1 kts | 179° |
| 2026-04-28 16:55 | 40.14839 | 44.40029 | 2850 ft | 8 kts | 180° |
| 2026-04-28 16:55 | 40.14769 | 44.40024 | 2850 ft | 9 kts | 198° |
| 2026-04-28 16:55 | 40.14732 | 44.39947 | 2850 ft | 11 kts | 263° |
| 2026-04-28 16:55 | 40.14729 | 44.39828 | 2850 ft | 14 kts | 269° |
| 2026-04-28 16:56 | 40.14728 | 44.39680 | 2850 ft | 19 kts | 269° |
| 2026-04-28 16:56 | 40.14728 | 44.39476 | 2850 ft | 25 kts | 271° |
| 2026-04-28 16:56 | 40.14726 | 44.39233 | 2850 ft | 26 kts | 269° |
| 2026-04-28 16:56 | 40.14725 | 44.38996 | 2850 ft | 25 kts | 271° |
| 2026-04-28 16:57 | 40.14722 | 44.38766 | 2850 ft | 24 kts | 265° |
| 2026-04-28 16:57 | 40.14721 | 44.38548 | 2850 ft | 21 kts | 269° |
| 2026-04-28 16:57 | 40.14711 | 44.38430 | 2850 ft | 9 kts | 246° |
| 2026-04-28 16:57 | 40.14697 | 44.38362 | 2850 ft | 6 kts | 304° |
| 2026-04-28 16:58 | 40.14722 | 44.38383 | 2849 ft | 6 kts | 83° |
| 2026-04-28 16:58 | 40.14722 | 44.38441 | 2849 ft | 6 kts | 91° |
| 2026-04-28 16:58 | 40.14722 | 44.38601 | 2850 ft | 46 kts | 89° |
| 2026-04-28 16:58 | 40.14727 | 44.39344 | 2850 ft | 114 kts | 89° |
| 2026-04-28 16:59 | 40.14732 | 44.40638 | 2856 ft | 168 kts | 86° |
| 2026-04-28 16:59 | 40.14723 | 44.42209 | 3374 ft | 174 kts | 85° |
| 2026-04-28 16:59 | 40.14728 | 44.43789 | 4076 ft | 176 kts | 85° |
| 2026-04-28 16:59 | 40.14452 | 44.45342 | 4786 ft | 185 kts | 116° |
| 2026-04-28 17:00 | 40.13473 | 44.46511 | 5151 ft | 206 kts | 152° |
| 2026-04-28 17:00 | 40.12004 | 44.46726 | 5440 ft | 228 kts | 190° |
| 2026-04-28 17:00 | 40.10620 | 44.45583 | 5719 ft | 247 kts | 232° |
| 2026-04-28 17:00 | 40.10019 | 44.43442 | 5954 ft | 264 kts | 267° |
| 2026-04-28 17:01 | 40.10052 | 44.40990 | 6372 ft | 277 kts | 275° |
| 2026-04-28 17:01 | 40.10202 | 44.38452 | 6853 ft | 287 kts | 275° |
| 2026-04-28 17:01 | 40.10341 | 44.35837 | 7540 ft | 290 kts | 274° |
| 2026-04-28 17:01 | 40.10448 | 44.33196 | 8240 ft | 293 kts | 273° |
| 2026-04-28 17:02 | 40.10530 | 44.30533 | 8932 ft | 295 kts | 272° |
| 2026-04-28 17:02 | 40.10576 | 44.28735 | 9395 ft | 296 kts | 272° |
| 2026-04-28 17:02 | 40.10656 | 44.25150 | 10274 ft | 300 kts | 272° |
| 2026-04-28 17:02 | 40.10710 | 44.22401 | 10689 ft | 312 kts | 272° |
| 2026-04-28 17:03 | 40.10819 | 44.16457 | 11384 ft | 340 kts | 271° |
| 2026-04-28 17:03 | 40.10873 | 44.13375 | 11995 ft | 343 kts | 271° |
| 2026-04-28 17:03 | 40.10926 | 44.10252 | 12642 ft | 345 kts | 271° |
| 2026-04-28 17:04 | 40.11031 | 44.03924 | 13852 ft | 350 kts | 271° |
| 2026-04-28 17:04 | 40.11082 | 44.00763 | 14443 ft | 352 kts | 271° |
| 2026-04-28 17:05 | 40.11185 | 43.94299 | 15634 ft | 356 kts | 271° |
| 2026-04-28 17:05 | 40.11234 | 43.91072 | 16205 ft | 358 kts | 271° |
| 2026-04-28 17:05 | 40.11281 | 43.87820 | 16766 ft | 360 kts | 271° |
| 2026-04-28 17:06 | 40.11374 | 43.81267 | 17848 ft | 363 kts | 270° |
| 2026-04-28 17:06 | 40.11419 | 43.78001 | 18355 ft | 365 kts | 270° |
| 2026-04-28 17:06 | 40.11510 | 43.71333 | 19344 ft | 369 kts | 270° |
| 2026-04-28 17:07 | 40.11550 | 43.67955 | 19819 ft | 371 kts | 269° |
| 2026-04-28 17:07 | 40.11482 | 43.64601 | 20270 ft | 373 kts | 265° |
| 2026-04-28 17:07 | 40.11316 | 43.61195 | 20730 ft | 375 kts | 265° |
| 2026-04-28 17:07 | 40.11134 | 43.57803 | 21179 ft | 377 kts | 264° |
| 2026-04-28 17:08 | 40.10947 | 43.54375 | 21622 ft | 379 kts | 264° |
| 2026-04-28 17:08 | 40.10760 | 43.50941 | 22060 ft | 380 kts | 264° |
| 2026-04-28 17:08 | 40.10573 | 43.47533 | 22475 ft | 382 kts | 264° |
| 2026-04-28 17:08 | 40.10381 | 43.44043 | 22885 ft | 384 kts | 264° |
| 2026-04-28 17:09 | 40.10190 | 43.40536 | 23296 ft | 386 kts | 264° |
| 2026-04-28 17:09 | 40.09998 | 43.37035 | 23710 ft | 387 kts | 264° |
| 2026-04-28 17:09 | 40.09806 | 43.33535 | 24114 ft | 388 kts | 264° |
| 2026-04-28 17:09 | 40.09612 | 43.30009 | 24496 ft | 390 kts | 264° |
| 2026-04-28 17:10 | 40.09415 | 43.26422 | 24836 ft | 393 kts | 264° |
| 2026-04-28 17:10 | 40.09215 | 43.22852 | 25059 ft | 398 kts | 264° |
| 2026-04-28 17:10 | 40.09011 | 43.19252 | 25358 ft | 400 kts | 264° |
| 2026-04-28 17:10 | 40.08803 | 43.15595 | 25701 ft | 402 kts | 264° |
| 2026-04-28 17:11 | 40.08595 | 43.11962 | 26031 ft | 403 kts | 264° |
| 2026-04-28 17:11 | 40.08382 | 43.08289 | 26348 ft | 405 kts | 264° |
| 2026-04-28 17:11 | 40.08169 | 43.04620 | 26664 ft | 406 kts | 263° |
| 2026-04-28 17:11 | 40.07952 | 43.00928 | 26991 ft | 407 kts | 264° |
| 2026-04-28 17:12 | 40.07732 | 42.97219 | 27310 ft | 408 kts | 263° |
| 2026-04-28 17:12 | 40.07511 | 42.93508 | 27587 ft | 410 kts | 264° |
| 2026-04-28 17:12 | 40.07294 | 42.89775 | 27900 ft | 410 kts | 264° |
| 2026-04-28 17:12 | 40.07075 | 42.86023 | 28201 ft | 412 kts | 263° |
| 2026-04-28 17:13 | 40.06854 | 42.82278 | 28482 ft | 413 kts | 264° |
| 2026-04-28 17:13 | 40.06632 | 42.78547 | 28768 ft | 414 kts | 263° |
| 2026-04-28 17:13 | 40.06406 | 42.74778 | 29040 ft | 415 kts | 263° |
| 2026-04-28 17:13 | 40.06181 | 42.71023 | 29299 ft | 417 kts | 263° |
| 2026-04-28 17:14 | 40.05952 | 42.67256 | 29574 ft | 418 kts | 263° |
| 2026-04-28 17:14 | 40.05723 | 42.63510 | 29832 ft | 419 kts | 263° |
| 2026-04-28 17:14 | 40.05488 | 42.59718 | 30085 ft | 420 kts | 263° |
| 2026-04-28 17:14 | 40.05251 | 42.55901 | 30332 ft | 422 kts | 263° |
| 2026-04-28 17:15 | 40.05012 | 42.52074 | 30581 ft | 423 kts | 263° |
| 2026-04-28 17:15 | 40.04775 | 42.48296 | 30845 ft | 423 kts | 263° |
| 2026-04-28 17:15 | 40.04534 | 42.44458 | 31160 ft | 422 kts | 263° |
| 2026-04-28 17:15 | 40.04291 | 42.40679 | 31482 ft | 421 kts | 263° |
| 2026-04-28 17:16 | 40.04036 | 42.36881 | 31801 ft | 419 kts | 262° |
| 2026-04-28 17:16 | 40.03776 | 42.33064 | 32107 ft | 419 kts | 262° |
| 2026-04-28 17:16 | 40.03519 | 42.29293 | 32441 ft | 417 kts | 262° |
| 2026-04-28 17:16 | 40.03261 | 42.25537 | 32758 ft | 416 kts | 262° |
| 2026-04-28 17:17 | 40.03006 | 42.21822 | 33061 ft | 415 kts | 262° |
| 2026-04-28 17:17 | 40.02744 | 42.18060 | 33367 ft | 414 kts | 262° |
| 2026-04-28 17:17 | 40.02484 | 42.14338 | 33646 ft | 413 kts | 262° |
| 2026-04-28 17:17 | 40.02221 | 42.10599 | 33913 ft | 412 kts | 262° |
| 2026-04-28 17:18 | 40.01959 | 42.06878 | 34179 ft | 412 kts | 262° |
| 2026-04-28 17:18 | 40.01699 | 42.03211 | 34424 ft | 412 kts | 262° |
| 2026-04-28 17:18 | 40.01432 | 41.99479 | 34600 ft | 412 kts | 262° |
| 2026-04-28 17:18 | 40.01163 | 41.95730 | 34766 ft | 413 kts | 262° |
| 2026-04-28 17:19 | 40.00895 | 41.92017 | 34912 ft | 415 kts | 262° |
| 2026-04-28 17:19 | 40.00620 | 41.88226 | 35062 ft | 416 kts | 262° |
| 2026-04-28 17:19 | 40.00350 | 41.84509 | 35226 ft | 417 kts | 262° |
| 2026-04-28 17:19 | 40.00076 | 41.80772 | 35356 ft | 418 kts | 262° |
| 2026-04-28 17:20 | 39.99796 | 41.76946 | 35504 ft | 419 kts | 262° |
| 2026-04-28 17:20 | 39.99613 | 41.74446 | 35609 ft | 419 kts | 262° |
| 2026-04-28 17:20 | 39.99253 | 41.69401 | 35806 ft | 420 kts | 262° |
| 2026-04-28 17:20 | 39.98986 | 41.65605 | 35933 ft | 421 kts | 262° |
| 2026-04-28 17:21 | 39.98717 | 41.61807 | 36058 ft | 421 kts | 262° |
| 2026-04-28 17:21 | 39.98445 | 41.58017 | 36064 ft | 423 kts | 262° |
| 2026-04-28 17:22 | 39.97616 | 41.46571 | 36081 ft | 423 kts | 262° |
| 2026-04-28 17:22 | 39.97049 | 41.38897 | 36093 ft | 423 kts | 262° |
| 2026-04-28 17:23 | 39.96202 | 41.27551 | 36080 ft | 423 kts | 261° |
| 2026-04-28 17:23 | 39.95737 | 41.19897 | 36072 ft | 424 kts | 265° |
| 2026-04-28 17:24 | 39.95701 | 41.12201 | 36064 ft | 426 kts | 267° |
| 2026-04-28 17:24 | 39.95705 | 41.04442 | 36072 ft | 426 kts | 267° |
| 2026-04-28 17:25 | 39.95699 | 40.92848 | 36079 ft | 427 kts | 267° |
| 2026-04-28 17:26 | 39.95686 | 40.85088 | 36073 ft | 428 kts | 267° |
| 2026-04-28 17:26 | 39.95666 | 40.77372 | 36079 ft | 428 kts | 267° |
| 2026-04-28 17:27 | 39.95641 | 40.69647 | 36085 ft | 427 kts | 267° |
| 2026-04-28 17:27 | 39.95620 | 40.61916 | 36081 ft | 427 kts | 267° |
| 2026-04-28 17:28 | 39.95596 | 40.54189 | 36082 ft | 426 kts | 267° |
| 2026-04-28 17:28 | 39.95545 | 40.42626 | 36080 ft | 426 kts | 267° |
| 2026-04-28 17:29 | 39.95502 | 40.34921 | 36091 ft | 426 kts | 267° |
| 2026-04-28 17:30 | 39.95427 | 40.23287 | 36101 ft | 427 kts | 267° |
| 2026-04-28 17:30 | 39.95341 | 40.11700 | 36105 ft | 427 kts | 267° |
| 2026-04-28 17:31 | 39.95240 | 40.00125 | 36102 ft | 427 kts | 267° |
| 2026-04-28 17:32 | 39.95130 | 39.88506 | 36103 ft | 426 kts | 267° |
| 2026-04-28 17:32 | 39.95053 | 39.80812 | 36102 ft | 426 kts | 267° |
| 2026-04-28 17:33 | 39.94965 | 39.73110 | 36101 ft | 426 kts | 267° |
| 2026-04-28 17:33 | 39.94885 | 39.66708 | 36099 ft | 426 kts | 267° |
| 2026-04-28 17:34 | 39.94768 | 39.57688 | 36089 ft | 427 kts | 267° |
| 2026-04-28 17:34 | 39.94675 | 39.49984 | 36097 ft | 427 kts | 268° |
| 2026-04-28 17:35 | 39.94574 | 39.42257 | 36091 ft | 427 kts | 267° |
| 2026-04-28 17:35 | 39.94463 | 39.34544 | 36092 ft | 427 kts | 267° |
| 2026-04-28 17:36 | 39.94346 | 39.26835 | 36083 ft | 427 kts | 267° |
| 2026-04-28 17:36 | 39.94224 | 39.19104 | 36084 ft | 426 kts | 267° |
| 2026-04-28 17:37 | 39.94098 | 39.11423 | 36079 ft | 427 kts | 267° |
| 2026-04-28 17:37 | 39.93978 | 39.03671 | 36096 ft | 427 kts | 267° |
| 2026-04-28 17:38 | 39.93856 | 38.95942 | 36107 ft | 427 kts | 267° |
| 2026-04-28 17:38 | 39.93691 | 38.88274 | 36102 ft | 427 kts | 265° |
| 2026-04-28 17:39 | 39.93216 | 38.80581 | 36106 ft | 425 kts | 264° |
| 2026-04-28 17:40 | 39.92446 | 38.69111 | 36106 ft | 425 kts | 264° |
| 2026-04-28 17:40 | 39.91928 | 38.61470 | 36101 ft | 425 kts | 264° |
| 2026-04-28 17:41 | 39.91406 | 38.53825 | 36101 ft | 425 kts | 264° |
| 2026-04-28 17:41 | 39.90879 | 38.46195 | 36093 ft | 425 kts | 264° |
| 2026-04-28 17:42 | 39.90345 | 38.38566 | 36101 ft | 425 kts | 264° |
| 2026-04-28 17:42 | 39.89797 | 38.30861 | 36096 ft | 424 kts | 263° |
| 2026-04-28 17:43 | 39.89229 | 38.23232 | 36098 ft | 424 kts | 263° |
| 2026-04-28 17:43 | 39.88675 | 38.15642 | 36099 ft | 424 kts | 263° |
| 2026-04-28 17:44 | 39.88124 | 38.08036 | 36082 ft | 423 kts | 263° |
| 2026-04-28 17:44 | 39.87569 | 38.00435 | 36084 ft | 423 kts | 263° |
| 2026-04-28 17:45 | 39.87009 | 37.92802 | 36080 ft | 423 kts | 263° |
| 2026-04-28 17:45 | 39.86452 | 37.85220 | 36092 ft | 423 kts | 263° |
| 2026-04-28 17:46 | 39.85886 | 37.77578 | 36108 ft | 423 kts | 263° |
| 2026-04-28 17:46 | 39.85321 | 37.70016 | 36105 ft | 423 kts | 263° |
| 2026-04-28 17:47 | 39.84748 | 37.62403 | 36110 ft | 422 kts | 263° |
| 2026-04-28 17:47 | 39.84176 | 37.54852 | 36113 ft | 422 kts | 264° |
| 2026-04-28 17:48 | 39.83595 | 37.47269 | 36117 ft | 423 kts | 264° |
| 2026-04-28 17:48 | 39.83005 | 37.39671 | 36106 ft | 423 kts | 263° |
| 2026-04-28 17:49 | 39.82400 | 37.32039 | 36112 ft | 423 kts | 263° |
| 2026-04-28 17:49 | 39.81799 | 37.24461 | 36111 ft | 423 kts | 263° |
| 2026-04-28 17:50 | 39.81191 | 37.16883 | 36100 ft | 423 kts | 263° |
| 2026-04-28 17:50 | 39.80574 | 37.09261 | 36103 ft | 423 kts | 263° |
| 2026-04-28 17:51 | 39.79951 | 37.01678 | 36094 ft | 422 kts | 262° |
| 2026-04-28 17:51 | 39.78471 | 36.94327 | 36087 ft | 422 kts | 248° |
| 2026-04-28 17:52 | 39.75575 | 36.87737 | 36083 ft | 423 kts | 234° |
| 2026-04-28 17:52 | 39.69058 | 36.79998 | 36087 ft | 427 kts | 218° |
| 2026-04-28 17:53 | 39.64258 | 36.75487 | 36089 ft | 427 kts | 218° |
| 2026-04-28 17:53 | 39.59455 | 36.70986 | 36094 ft | 427 kts | 218° |
| 2026-04-28 17:54 | 39.54641 | 36.66471 | 36095 ft | 427 kts | 218° |
| 2026-04-28 17:54 | 39.49823 | 36.61956 | 36095 ft | 428 kts | 218° |
| 2026-04-28 17:55 | 39.45016 | 36.57456 | 36093 ft | 428 kts | 218° |
| 2026-04-28 17:55 | 39.40196 | 36.52951 | 36092 ft | 428 kts | 218° |
| 2026-04-28 17:56 | 39.35394 | 36.48469 | 36095 ft | 428 kts | 218° |
| 2026-04-28 17:56 | 39.30577 | 36.43981 | 36086 ft | 428 kts | 218° |
| 2026-04-28 17:57 | 39.25729 | 36.39471 | 36084 ft | 428 kts | 218° |
| 2026-04-28 17:57 | 39.20914 | 36.35002 | 36091 ft | 428 kts | 218° |
| 2026-04-28 17:58 | 39.16089 | 36.30509 | 36082 ft | 429 kts | 218° |
| 2026-04-28 17:58 | 39.11254 | 36.26017 | 36085 ft | 429 kts | 218° |
| 2026-04-28 17:59 | 39.06411 | 36.21537 | 36076 ft | 430 kts | 217° |
| 2026-04-28 17:59 | 39.01564 | 36.17066 | 36082 ft | 430 kts | 217° |
| 2026-04-28 18:00 | 38.96677 | 36.12568 | 36082 ft | 430 kts | 217° |
| 2026-04-28 18:00 | 38.91821 | 36.08107 | 36085 ft | 430 kts | 217° |
| 2026-04-28 18:01 | 38.86952 | 36.03652 | 36082 ft | 430 kts | 217° |
| 2026-04-28 18:01 | 38.82050 | 35.99190 | 36074 ft | 430 kts | 217° |
| 2026-04-28 18:02 | 38.77193 | 35.94761 | 36075 ft | 431 kts | 217° |
| 2026-04-28 18:02 | 38.72298 | 35.90298 | 36086 ft | 431 kts | 217° |
| 2026-04-28 18:03 | 38.67453 | 35.85886 | 36088 ft | 430 kts | 218° |
| 2026-04-28 18:03 | 38.62584 | 35.81457 | 36095 ft | 430 kts | 218° |
| 2026-04-28 18:04 | 38.57696 | 35.77019 | 36095 ft | 430 kts | 218° |
| 2026-04-28 18:04 | 38.52826 | 35.72604 | 36096 ft | 430 kts | 218° |
| 2026-04-28 18:05 | 38.48767 | 35.68930 | 36097 ft | 430 kts | 218° |
| 2026-04-28 18:05 | 38.43064 | 35.63777 | 36105 ft | 431 kts | 218° |
| 2026-04-28 18:06 | 38.38193 | 35.59382 | 36105 ft | 431 kts | 218° |
| 2026-04-28 18:06 | 38.33289 | 35.54966 | 36109 ft | 431 kts | 218° |
| 2026-04-28 18:07 | 38.28415 | 35.50593 | 36115 ft | 432 kts | 217° |
| 2026-04-28 18:07 | 38.23477 | 35.46184 | 36117 ft | 432 kts | 217° |
| 2026-04-28 18:08 | 38.18554 | 35.41792 | 36121 ft | 433 kts | 218° |
| 2026-04-28 18:08 | 38.13633 | 35.37405 | 36120 ft | 434 kts | 218° |
| 2026-04-28 18:09 | 38.08705 | 35.33009 | 36119 ft | 434 kts | 217° |
| 2026-04-28 18:09 | 38.03771 | 35.28597 | 36114 ft | 435 kts | 217° |
| 2026-04-28 18:10 | 37.98889 | 35.24254 | 36112 ft | 435 kts | 217° |
| 2026-04-28 18:10 | 37.93918 | 35.19846 | 36118 ft | 435 kts | 217° |
| 2026-04-28 18:11 | 37.88963 | 35.15465 | 36118 ft | 435 kts | 217° |
| 2026-04-28 18:11 | 37.83988 | 35.11100 | 36120 ft | 436 kts | 217° |
| 2026-04-28 18:12 | 37.78994 | 35.06714 | 36115 ft | 436 kts | 217° |
| 2026-04-28 18:12 | 37.74020 | 35.02344 | 36116 ft | 436 kts | 217° |
| 2026-04-28 18:13 | 37.69092 | 34.98017 | 36110 ft | 436 kts | 217° |
| 2026-04-28 18:13 | 37.64119 | 34.93656 | 36100 ft | 437 kts | 217° |
| 2026-04-28 18:14 | 37.59126 | 34.89285 | 36104 ft | 437 kts | 217° |
| 2026-04-28 18:14 | 37.54149 | 34.84936 | 36102 ft | 437 kts | 217° |
| 2026-04-28 18:15 | 37.49134 | 34.80561 | 36092 ft | 438 kts | 217° |
| 2026-04-28 18:15 | 37.44121 | 34.76194 | 36088 ft | 439 kts | 217° |
| 2026-04-28 18:16 | 37.39114 | 34.71839 | 36077 ft | 439 kts | 217° |
| 2026-04-28 18:16 | 37.34060 | 34.67452 | 36082 ft | 439 kts | 217° |
| 2026-04-28 18:17 | 37.29046 | 34.63106 | 36084 ft | 439 kts | 217° |
| 2026-04-28 18:17 | 37.24020 | 34.58757 | 36084 ft | 439 kts | 217° |
| 2026-04-28 18:18 | 37.18965 | 34.54389 | 36083 ft | 439 kts | 217° |
| 2026-04-28 18:18 | 37.14792 | 34.50789 | 36083 ft | 440 kts | 217° |
| 2026-04-28 18:19 | 37.08894 | 34.45710 | 36080 ft | 440 kts | 217° |
| 2026-04-28 18:19 | 37.03828 | 34.41354 | 36087 ft | 441 kts | 217° |
| 2026-04-28 18:20 | 36.98749 | 34.36994 | 36085 ft | 441 kts | 217° |
| 2026-04-28 18:20 | 36.93753 | 34.32704 | 36089 ft | 441 kts | 217° |
| 2026-04-28 18:21 | 36.88654 | 34.28321 | 36078 ft | 441 kts | 216° |
| 2026-04-28 18:21 | 36.83599 | 34.24020 | 36089 ft | 442 kts | 216° |
| 2026-04-28 18:22 | 36.78530 | 34.19705 | 36084 ft | 441 kts | 216° |
| 2026-04-28 18:22 | 36.73440 | 34.15373 | 36077 ft | 441 kts | 217° |
| 2026-04-28 18:23 | 36.68369 | 34.11062 | 36092 ft | 441 kts | 217° |
| 2026-04-28 18:23 | 36.63335 | 34.06794 | 36076 ft | 441 kts | 217° |
| 2026-04-28 18:24 | 36.59095 | 34.03204 | 36064 ft | 441 kts | 216° |
| 2026-04-28 18:24 | 36.53130 | 33.98163 | 36060 ft | 442 kts | 216° |
| 2026-04-28 18:25 | 36.48073 | 33.93895 | 36045 ft | 442 kts | 216° |
| 2026-04-28 18:26 | 36.40455 | 33.87479 | 36025 ft | 442 kts | 217° |
| 2026-04-28 18:26 | 36.35361 | 33.83197 | 36000 ft | 441 kts | 217° |
| 2026-04-28 18:27 | 36.30270 | 33.78925 | 35981 ft | 441 kts | 217° |
| 2026-04-28 18:27 | 36.25118 | 33.74753 | 35765 ft | 443 kts | 213° |
| 2026-04-28 18:27 | 36.22475 | 33.72881 | 35398 ft | 442 kts | 212° |
| 2026-04-28 18:28 | 36.19802 | 33.71007 | 34839 ft | 445 kts | 212° |
| 2026-04-28 18:28 | 36.17097 | 33.69114 | 34083 ft | 450 kts | 211° |
| 2026-04-28 18:28 | 36.14364 | 33.67203 | 33249 ft | 453 kts | 211° |
| 2026-04-28 18:28 | 36.11647 | 33.65306 | 32498 ft | 453 kts | 211° |
| 2026-04-28 18:29 | 36.08882 | 33.63378 | 31748 ft | 453 kts | 211° |
| 2026-04-28 18:29 | 36.06170 | 33.61486 | 31008 ft | 453 kts | 211° |
| 2026-04-28 18:29 | 36.03431 | 33.59575 | 30269 ft | 453 kts | 211° |
| 2026-04-28 18:29 | 36.00716 | 33.57685 | 29767 ft | 447 kts | 211° |
| 2026-04-28 18:30 | 35.98012 | 33.55803 | 29278 ft | 441 kts | 211° |
| 2026-04-28 18:30 | 35.97105 | 33.55172 | 29112 ft | 439 kts | 211° |
| 2026-04-28 18:30 | 35.92754 | 33.52146 | 28312 ft | 430 kts | 211° |
| 2026-04-28 18:30 | 35.90160 | 33.50344 | 27817 ft | 426 kts | 211° |
| 2026-04-28 18:31 | 35.87584 | 33.48560 | 27341 ft | 421 kts | 211° |
| 2026-04-28 18:31 | 35.85035 | 33.46802 | 26863 ft | 417 kts | 211° |
| 2026-04-28 18:31 | 35.82523 | 33.45069 | 26389 ft | 413 kts | 211° |
| 2026-04-28 18:31 | 35.80013 | 33.43335 | 25918 ft | 410 kts | 211° |
| 2026-04-28 18:32 | 35.77533 | 33.41622 | 25450 ft | 406 kts | 211° |
| 2026-04-28 18:32 | 35.75087 | 33.39930 | 24988 ft | 403 kts | 211° |
| 2026-04-28 18:32 | 35.72652 | 33.38248 | 24531 ft | 399 kts | 211° |
| 2026-04-28 18:32 | 35.70234 | 33.36577 | 24078 ft | 396 kts | 211° |
| 2026-04-28 18:33 | 35.67844 | 33.34927 | 23619 ft | 393 kts | 211° |
| 2026-04-28 18:33 | 35.65479 | 33.33286 | 23170 ft | 390 kts | 211° |
| 2026-04-28 18:33 | 35.63129 | 33.31652 | 22724 ft | 387 kts | 211° |
| 2026-04-28 18:33 | 35.60774 | 33.30018 | 22276 ft | 384 kts | 211° |
| 2026-04-28 18:34 | 35.58466 | 33.28421 | 21834 ft | 381 kts | 211° |
| 2026-04-28 18:34 | 35.56189 | 33.26851 | 21399 ft | 379 kts | 211° |
| 2026-04-28 18:34 | 35.53871 | 33.25254 | 20956 ft | 376 kts | 211° |
| 2026-04-28 18:34 | 35.51623 | 33.23709 | 20531 ft | 374 kts | 211° |
| 2026-04-28 18:35 | 35.49362 | 33.22155 | 20101 ft | 371 kts | 211° |
| 2026-04-28 18:35 | 35.47102 | 33.20604 | 19671 ft | 369 kts | 211° |
| 2026-04-28 18:35 | 35.44868 | 33.19071 | 19237 ft | 366 kts | 211° |
| 2026-04-28 18:35 | 35.42646 | 33.17548 | 18803 ft | 364 kts | 211° |
| 2026-04-28 18:36 | 35.40446 | 33.16041 | 18381 ft | 362 kts | 211° |
| 2026-04-28 18:36 | 35.38263 | 33.14546 | 17945 ft | 360 kts | 211° |
| 2026-04-28 18:36 | 35.36066 | 33.13042 | 17519 ft | 357 kts | 211° |
| 2026-04-28 18:36 | 35.33915 | 33.11571 | 17108 ft | 355 kts | 211° |
| 2026-04-28 18:37 | 35.31770 | 33.10104 | 16682 ft | 353 kts | 210° |
| 2026-04-28 18:37 | 35.29630 | 33.08641 | 16267 ft | 351 kts | 210° |
| 2026-04-28 18:37 | 35.27481 | 33.07175 | 15849 ft | 348 kts | 210° |
| 2026-04-28 18:37 | 35.25399 | 33.05754 | 15447 ft | 346 kts | 210° |
| 2026-04-28 18:38 | 35.23289 | 33.04316 | 15037 ft | 345 kts | 210° |
| 2026-04-28 18:38 | 35.21183 | 33.02882 | 14614 ft | 343 kts | 210° |
| 2026-04-28 18:38 | 35.19109 | 33.01470 | 14214 ft | 341 kts | 210° |
| 2026-04-28 18:38 | 35.17062 | 33.00077 | 13817 ft | 339 kts | 210° |
| 2026-04-28 18:39 | 35.14980 | 32.98663 | 13414 ft | 337 kts | 210° |
| 2026-04-28 18:39 | 35.12926 | 32.97315 | 12997 ft | 336 kts | 205° |
| 2026-04-28 18:39 | 35.10661 | 32.96686 | 12557 ft | 335 kts | 181° |
| 2026-04-28 18:39 | 35.08379 | 32.97174 | 12125 ft | 335 kts | 159° |
| 2026-04-28 18:40 | 35.06430 | 32.98667 | 11700 ft | 333 kts | 136° |
| 2026-04-28 18:40 | 35.05087 | 33.00915 | 11271 ft | 331 kts | 114° |
| 2026-04-28 18:40 | 35.04286 | 33.03555 | 10871 ft | 329 kts | 108° |
| 2026-04-28 18:40 | 35.03577 | 33.06209 | 10461 ft | 327 kts | 107° |
| 2026-04-28 18:41 | 35.02881 | 33.08773 | 10312 ft | 315 kts | 108° |
| 2026-04-28 18:41 | 35.02191 | 33.11239 | 10216 ft | 301 kts | 108° |
| 2026-04-28 18:41 | 35.01516 | 33.13609 | 10136 ft | 288 kts | 109° |
| 2026-04-28 18:41 | 35.00855 | 33.15909 | 9872 ft | 286 kts | 108° |
| 2026-04-28 18:42 | 35.00204 | 33.18171 | 9524 ft | 285 kts | 108° |
| 2026-04-28 18:42 | 34.99544 | 33.20459 | 9186 ft | 286 kts | 108° |
| 2026-04-28 18:42 | 34.98872 | 33.22784 | 9072 ft | 292 kts | 108° |
| 2026-04-28 18:42 | 34.98195 | 33.25129 | 9073 ft | 293 kts | 108° |
| 2026-04-28 18:43 | 34.97514 | 33.27480 | 9060 ft | 294 kts | 108° |
| 2026-04-28 18:43 | 34.96833 | 33.29829 | 9063 ft | 293 kts | 109° |
| 2026-04-28 18:43 | 34.96162 | 33.32143 | 8970 ft | 289 kts | 109° |
| 2026-04-28 18:43 | 34.95490 | 33.34458 | 8577 ft | 289 kts | 109° |
| 2026-04-28 18:44 | 34.94812 | 33.36787 | 8128 ft | 290 kts | 109° |
| 2026-04-28 18:44 | 34.93469 | 33.41396 | 7346 ft | 288 kts | 109° |
| 2026-04-28 18:44 | 34.92802 | 33.43682 | 6960 ft | 286 kts | 109° |
| 2026-04-28 18:45 | 34.92140 | 33.45956 | 6563 ft | 285 kts | 109° |
| 2026-04-28 18:45 | 34.91472 | 33.48248 | 6183 ft | 284 kts | 109° |
| 2026-04-28 18:45 | 34.90814 | 33.50505 | 5810 ft | 282 kts | 109° |
| 2026-04-28 18:45 | 34.90163 | 33.52736 | 5445 ft | 280 kts | 109° |
| 2026-04-28 18:46 | 34.89500 | 33.54983 | 5073 ft | 278 kts | 109° |
| 2026-04-28 18:46 | 34.88847 | 33.57171 | 4799 ft | 272 kts | 109° |
| 2026-04-28 18:46 | 34.88211 | 33.59309 | 4545 ft | 266 kts | 109° |
| 2026-04-28 18:46 | 34.87629 | 33.61458 | 4268 ft | 261 kts | 99° |
| 2026-04-28 18:47 | 34.87786 | 33.63583 | 3985 ft | 252 kts | 63° |
| 2026-04-28 18:47 | 34.88828 | 33.65202 | 3614 ft | 242 kts | 40° |
| 2026-04-28 18:47 | 34.89277 | 33.65664 | 3481 ft | 241 kts | 38° |
| 2026-04-28 18:51 | 34.90379 | 33.66729 | 3194 ft | 239 kts | 38° |
| 2026-04-28 18:52 | 34.91660 | 33.68022 | 2881 ft | 232 kts | 40° |
| 2026-04-28 18:52 | 34.92835 | 33.69304 | 2613 ft | 223 kts | 41° |
| 2026-04-28 18:52 | 34.93938 | 33.70570 | 2384 ft | 214 kts | 43° |
| 2026-04-28 18:52 | 34.95010 | 33.71830 | 2181 ft | 210 kts | 43° |
| 2026-04-28 18:53 | 34.96044 | 33.73060 | 1900 ft | 204 kts | 43° |
| 2026-04-28 18:53 | 34.97039 | 33.74250 | 1606 ft | 199 kts | 43° |
| 2026-04-28 18:53 | 34.98146 | 33.75136 | 1486 ft | 179 kts | 10° |
| 2026-04-28 18:53 | 34.99214 | 33.74815 | 1479 ft | 152 kts | 315° |
| 2026-04-28 18:54 | 34.99493 | 33.73625 | 1495 ft | 155 kts | 257° |
| 2026-04-28 18:54 | 34.98896 | 33.72546 | 1511 ft | 160 kts | 217° |
| 2026-04-28 18:54 | 34.97820 | 33.72199 | 1517 ft | 163 kts | 180° |
| 2026-04-28 18:54 | 34.96677 | 33.72252 | 1522 ft | 163 kts | 179° |
| 2026-04-28 18:55 | 34.95561 | 33.72188 | 1492 ft | 156 kts | 200° |
| 2026-04-28 18:55 | 34.94950 | 33.71766 | 1497 ft | 148 kts | 219° |
| 2026-04-28 18:55 | 34.93983 | 33.70579 | 1468 ft | 147 kts | 231° |
| 2026-04-28 18:55 | 34.93299 | 33.69659 | 1311 ft | 146 kts | 229° |
| 2026-04-28 18:56 | 34.92600 | 33.68776 | 1134 ft | 145 kts | 227° |
| 2026-04-28 18:56 | 34.91890 | 33.67908 | 959 ft | 144 kts | 226° |
| 2026-04-28 18:56 | 34.91184 | 33.67050 | 786 ft | 143 kts | 226° |
| 2026-04-28 18:56 | 34.90478 | 33.66189 | 608 ft | 142 kts | 227° |
| 2026-04-28 18:57 | 34.89786 | 33.65337 | 440 ft | 141 kts | 226° |
| 2026-04-28 18:57 | 34.89098 | 33.64506 | 279 ft | 140 kts | 226° |
| 2026-04-28 18:57 | 34.88408 | 33.63659 | 114 ft | 139 kts | 226° |
| 2026-04-28 18:57 | 34.87745 | 33.62843 | 17 ft | 124 kts | 225° |
| 2026-04-28 18:58 | 34.87254 | 33.62248 | 10 ft | 74 kts | 225° |
| 2026-04-28 18:58 | 34.87048 | 33.61996 | 9 ft | 15 kts | 226° |
| 2026-04-28 18:58 | 34.86995 | 33.61888 | 10 ft | 15 kts | 248° |
| 2026-04-28 18:58 | 34.86963 | 33.61765 | 11 ft | 15 kts | 255° |
| 2026-04-28 18:59 | 34.86946 | 33.61689 | 12 ft | 8 kts | 255° |
| 2026-04-28 18:59 | 34.86932 | 33.61620 | 14 ft | 8 kts | 256° |
| 2026-04-28 18:59 | 34.86917 | 33.61549 | 17 ft | 9 kts | 255° |
| 2026-04-28 18:59 | 34.86899 | 33.61472 | 21 ft | 9 kts | 253° |
| 2026-04-28 19:00 | 34.86883 | 33.61399 | 23 ft | 8 kts | 279° |
| 2026-04-28 19:00 | 34.86911 | 33.61350 | 25 ft | 6 kts | 314° |
| 2026-04-28 19:00 | 34.86940 | 33.61315 | 27 ft | 5 kts | 316° |
| 2026-04-28 19:00 | 34.86958 | 33.61289 | 28 ft | 3 kts | 295° |
| 2026-04-28 19:01 | 34.86961 | 33.61259 | 29 ft | 5 kts | 264° |
| 2026-04-28 19:01 | 34.86950 | 33.61208 | 31 ft | 5 kts | 256° |